sensor_id;sensor_type;location;lat;lon;timestamp;P1;durP1;ratioP1;P2;durP2;ratioP2
70052;SDS011;57398;52.032;4.376;2022-10-26T00:01:59;12.55;;;6.03;;
70052;SDS011;57398;52.032;4.376;2022-10-26T00:04:27;14.02;;;5.95;;
70052;SDS011;57398;52.032;4.376;2022-10-26T00:06:54;12.53;;;5.67;;
70052;SDS011;57398;52.032;4.376;2022-10-26T00:09:21;12.85;;;5.63;;
70052;SDS011;57398;52.032;4.376;2022-10-26T00:11:49;13.07;;;5.40;;
70052;SDS011;57398;52.032;4.376;2022-10-26T00:14:16;13.02;;;5.40;;
70052;SDS011;57398;52.032;4.376;2022-10-26T00:16:43;14.63;;;5.90;;
70052;SDS011;57398;52.032;4.376;2022-10-26T00:19:12;15.17;;;5.70;;
70052;SDS011;57398;52.032;4.376;2022-10-26T00:21:39;13.90;;;5.90;;
70052;SDS011;57398;52.032;4.376;2022-10-26T00:24:07;12.85;;;5.28;;
70052;SDS011;57398;52.032;4.376;2022-10-26T00:26:34;13.10;;;5.40;;
70052;SDS011;57398;52.032;4.376;2022-10-26T00:29:02;11.02;;;5.10;;
70052;SDS011;57398;52.032;4.376;2022-10-26T00:31:30;15.77;;;6.43;;
70052;SDS011;57398;52.032;4.376;2022-10-26T00:33:57;12.65;;;5.35;;
70052;SDS011;57398;52.032;4.376;2022-10-26T00:36:26;13.93;;;5.75;;
70052;SDS011;57398;52.032;4.376;2022-10-26T00:38:54;14.15;;;5.60;;
70052;SDS011;57398;52.032;4.376;2022-10-26T00:41:23;11.40;;;5.85;;
70052;SDS011;57398;52.032;4.376;2022-10-26T00:43:51;14.00;;;5.90;;
70052;SDS011;57398;52.032;4.376;2022-10-26T00:46:19;15.13;;;6.00;;
70052;SDS011;57398;52.032;4.376;2022-10-26T00:48:49;13.10;;;6.45;;
70052;SDS011;57398;52.032;4.376;2022-10-26T00:51:19;12.63;;;6.60;;
70052;SDS011;57398;52.032;4.376;2022-10-26T00:53:50;14.45;;;5.95;;
70052;SDS011;57398;52.032;4.376;2022-10-26T00:56:17;13.23;;;5.53;;
70052;SDS011;57398;52.032;4.376;2022-10-26T00:58:45;14.00;;;5.57;;
70052;SDS011;57398;52.032;4.376;2022-10-26T01:01:12;17.23;;;6.72;;
70052;SDS011;57398;52.032;4.376;2022-10-26T01:03:40;13.40;;;5.95;;
70052;SDS011;57398;52.032;4.376;2022-10-26T01:06:08;13.77;;;5.97;;
70052;SDS011;57398;52.032;4.376;2022-10-26T01:08:36;14.90;;;6.07;;
70052;SDS011;57398;52.032;4.376;2022-10-26T01:11:05;13.90;;;6.25;;
70052;SDS011;57398;52.032;4.376;2022-10-26T01:13:33;12.68;;;6.20;;
70052;SDS011;57398;52.032;4.376;2022-10-26T01:16:05;11.80;;;5.65;;
70052;SDS011;57398;52.032;4.376;2022-10-26T01:18:35;13.25;;;5.88;;
70052;SDS011;57398;52.032;4.376;2022-10-26T01:21:10;13.43;;;5.77;;
70052;SDS011;57398;52.032;4.376;2022-10-26T01:23:43;12.40;;;6.10;;
70052;SDS011;57398;52.032;4.376;2022-10-26T01:31:48;11.38;;;5.60;;
70052;SDS011;57398;52.032;4.376;2022-10-26T01:34:19;12.80;;;5.77;;
70052;SDS011;57398;52.032;4.376;2022-10-26T01:36:48;13.90;;;5.90;;
70052;SDS011;57398;52.032;4.376;2022-10-26T01:39:20;12.85;;;5.13;;
70052;SDS011;57398;52.032;4.376;2022-10-26T01:41:48;12.63;;;5.50;;
70052;SDS011;57398;52.032;4.376;2022-10-26T01:44:17;12.30;;;5.65;;
70052;SDS011;57398;52.032;4.376;2022-10-26T01:46:45;11.30;;;5.30;;
70052;SDS011;57398;52.032;4.376;2022-10-26T01:49:15;11.60;;;5.45;;
70052;SDS011;57398;52.032;4.376;2022-10-26T01:51:44;12.65;;;5.90;;
70052;SDS011;57398;52.032;4.376;2022-10-26T01:54:14;11.15;;;5.75;;
70052;SDS011;57398;52.032;4.376;2022-10-26T01:56:41;13.25;;;5.47;;
70052;SDS011;57398;52.032;4.376;2022-10-26T01:59:12;13.03;;;5.67;;
70052;SDS011;57398;52.032;4.376;2022-10-26T02:04:43;10.25;;;5.05;;
70052;SDS011;57398;52.032;4.376;2022-10-26T02:07:16;10.68;;;5.20;;
70052;SDS011;57398;52.032;4.376;2022-10-26T02:09:48;12.77;;;5.53;;
70052;SDS011;57398;52.032;4.376;2022-10-26T02:12:18;10.93;;;5.13;;
70052;SDS011;57398;52.032;4.376;2022-10-26T02:14:48;12.18;;;5.20;;
70052;SDS011;57398;52.032;4.376;2022-10-26T02:17:16;12.05;;;5.60;;
70052;SDS011;57398;52.032;4.376;2022-10-26T02:19:48;10.52;;;5.30;;
70052;SDS011;57398;52.032;4.376;2022-10-26T02:22:18;10.90;;;4.90;;
70052;SDS011;57398;52.032;4.376;2022-10-26T02:24:46;11.63;;;5.13;;
70052;SDS011;57398;52.032;4.376;2022-10-26T02:27:16;11.32;;;5.30;;
70052;SDS011;57398;52.032;4.376;2022-10-26T02:29:45;14.10;;;5.22;;
70052;SDS011;57398;52.032;4.376;2022-10-26T02:32:13;13.13;;;5.20;;
70052;SDS011;57398;52.032;4.376;2022-10-26T02:34:42;13.60;;;5.38;;
70052;SDS011;57398;52.032;4.376;2022-10-26T02:37:12;11.53;;;5.30;;
70052;SDS011;57398;52.032;4.376;2022-10-26T02:39:41;13.45;;;5.13;;
70052;SDS011;57398;52.032;4.376;2022-10-26T02:42:09;11.77;;;5.40;;
70052;SDS011;57398;52.032;4.376;2022-10-26T02:44:39;14.77;;;5.80;;
70052;SDS011;57398;52.032;4.376;2022-10-26T02:47:07;12.93;;;5.32;;
70052;SDS011;57398;52.032;4.376;2022-10-26T02:49:35;11.60;;;5.80;;
70052;SDS011;57398;52.032;4.376;2022-10-26T02:52:03;13.88;;;5.22;;
70052;SDS011;57398;52.032;4.376;2022-10-26T02:54:35;10.38;;;5.13;;
70052;SDS011;57398;52.032;4.376;2022-10-26T02:57:07;12.88;;;5.35;;
70052;SDS011;57398;52.032;4.376;2022-10-26T02:59:37;12.27;;;5.47;;
70052;SDS011;57398;52.032;4.376;2022-10-26T03:02:06;11.20;;;5.20;;
70052;SDS011;57398;52.032;4.376;2022-10-26T03:04:34;10.35;;;4.85;;
70052;SDS011;57398;52.032;4.376;2022-10-26T03:07:01;12.25;;;5.50;;
70052;SDS011;57398;52.032;4.376;2022-10-26T03:09:29;11.05;;;5.32;;
70052;SDS011;57398;52.032;4.376;2022-10-26T03:11:57;11.07;;;4.90;;
70052;SDS011;57398;52.032;4.376;2022-10-26T03:14:25;11.37;;;4.53;;
70052;SDS011;57398;52.032;4.376;2022-10-26T03:16:52;11.38;;;5.25;;
70052;SDS011;57398;52.032;4.376;2022-10-26T03:19:20;13.30;;;5.07;;
70052;SDS011;57398;52.032;4.376;2022-10-26T03:21:47;11.40;;;4.95;;
70052;SDS011;57398;52.032;4.376;2022-10-26T03:24:15;12.75;;;5.20;;
70052;SDS011;57398;52.032;4.376;2022-10-26T03:26:42;13.00;;;5.10;;
70052;SDS011;57398;52.032;4.376;2022-10-26T03:29:11;12.43;;;5.50;;
70052;SDS011;57398;52.032;4.376;2022-10-26T03:31:38;13.73;;;5.45;;
70052;SDS011;57398;52.032;4.376;2022-10-26T03:34:05;10.68;;;5.05;;
70052;SDS011;57398;52.032;4.376;2022-10-26T03:36:33;16.55;;;5.50;;
70052;SDS011;57398;52.032;4.376;2022-10-26T03:39:00;12.70;;;5.00;;
70052;SDS011;57398;52.032;4.376;2022-10-26T03:41:28;11.43;;;4.85;;
70052;SDS011;57398;52.032;4.376;2022-10-26T03:43:55;11.25;;;5.10;;
70052;SDS011;57398;52.032;4.376;2022-10-26T03:46:24;10.38;;;5.05;;
70052;SDS011;57398;52.032;4.376;2022-10-26T03:48:51;12.45;;;5.43;;
70052;SDS011;57398;52.032;4.376;2022-10-26T03:51:19;13.30;;;5.00;;
70052;SDS011;57398;52.032;4.376;2022-10-26T03:53:46;9.98;;;4.78;;
70052;SDS011;57398;52.032;4.376;2022-10-26T03:56:13;11.43;;;4.60;;
70052;SDS011;57398;52.032;4.376;2022-10-26T03:58:41;10.88;;;4.88;;
70052;SDS011;57398;52.032;4.376;2022-10-26T04:01:08;12.63;;;4.60;;
70052;SDS011;57398;52.032;4.376;2022-10-26T04:03:37;10.40;;;4.90;;
70052;SDS011;57398;52.032;4.376;2022-10-26T04:06:05;10.02;;;4.30;;
70052;SDS011;57398;52.032;4.376;2022-10-26T04:08:32;12.15;;;4.63;;
70052;SDS011;57398;52.032;4.376;2022-10-26T04:10:59;10.73;;;4.65;;
70052;SDS011;57398;52.032;4.376;2022-10-26T04:13:30;10.63;;;4.72;;
70052;SDS011;57398;52.032;4.376;2022-10-26T04:15:57;11.10;;;4.50;;
70052;SDS011;57398;52.032;4.376;2022-10-26T04:18:24;10.45;;;4.75;;
70052;SDS011;57398;52.032;4.376;2022-10-26T04:20:53;11.32;;;4.40;;
70052;SDS011;57398;52.032;4.376;2022-10-26T04:23:20;11.05;;;4.68;;
70052;SDS011;57398;52.032;4.376;2022-10-26T04:25:48;12.40;;;4.50;;
70052;SDS011;57398;52.032;4.376;2022-10-26T04:28:15;9.87;;;4.40;;
70052;SDS011;57398;52.032;4.376;2022-10-26T04:30:42;9.68;;;4.38;;
70052;SDS011;57398;52.032;4.376;2022-10-26T04:33:10;9.77;;;4.80;;
70052;SDS011;57398;52.032;4.376;2022-10-26T04:35:37;9.18;;;4.47;;
70052;SDS011;57398;52.032;4.376;2022-10-26T04:38:06;11.23;;;4.50;;
70052;SDS011;57398;52.032;4.376;2022-10-26T04:40:33;10.35;;;5.05;;
70052;SDS011;57398;52.032;4.376;2022-10-26T04:43:01;9.27;;;4.40;;
70052;SDS011;57398;52.032;4.376;2022-10-26T04:45:29;9.45;;;4.22;;
70052;SDS011;57398;52.032;4.376;2022-10-26T04:48:00;11.60;;;4.63;;
70052;SDS011;57398;52.032;4.376;2022-10-26T04:50:28;9.20;;;4.35;;
70052;SDS011;57398;52.032;4.376;2022-10-26T04:52:55;13.77;;;4.20;;
70052;SDS011;57398;52.032;4.376;2022-10-26T04:55:24;9.37;;;3.83;;
70052;SDS011;57398;52.032;4.376;2022-10-26T04:57:51;9.85;;;4.00;;
70052;SDS011;57398;52.032;4.376;2022-10-26T05:00:23;9.52;;;4.13;;
70052;SDS011;57398;52.032;4.376;2022-10-26T05:02:51;10.07;;;4.05;;
70052;SDS011;57398;52.032;4.376;2022-10-26T05:05:24;8.05;;;3.90;;
70052;SDS011;57398;52.032;4.376;2022-10-26T05:07:52;9.77;;;3.97;;
70052;SDS011;57398;52.032;4.376;2022-10-26T05:10:19;9.88;;;3.85;;
70052;SDS011;57398;52.032;4.376;2022-10-26T05:12:50;8.93;;;4.20;;
70052;SDS011;57398;52.032;4.376;2022-10-26T05:15:18;9.48;;;3.75;;
70052;SDS011;57398;52.032;4.376;2022-10-26T05:17:45;9.73;;;3.92;;
70052;SDS011;57398;52.032;4.376;2022-10-26T05:20:13;7.57;;;3.80;;
70052;SDS011;57398;52.032;4.376;2022-10-26T05:22:41;8.38;;;3.63;;
70052;SDS011;57398;52.032;4.376;2022-10-26T05:25:08;9.73;;;3.60;;
70052;SDS011;57398;52.032;4.376;2022-10-26T05:27:35;9.50;;;3.72;;
70052;SDS011;57398;52.032;4.376;2022-10-26T05:30:04;8.25;;;4.05;;
70052;SDS011;57398;52.032;4.376;2022-10-26T05:32:37;11.00;;;3.93;;
70052;SDS011;57398;52.032;4.376;2022-10-26T05:35:04;11.43;;;4.05;;
70052;SDS011;57398;52.032;4.376;2022-10-26T05:37:32;9.73;;;3.58;;
70052;SDS011;57398;52.032;4.376;2022-10-26T05:39:59;9.10;;;3.85;;
70052;SDS011;57398;52.032;4.376;2022-10-26T05:42:27;7.95;;;4.10;;
70052;SDS011;57398;52.032;4.376;2022-10-26T05:44:54;8.47;;;3.33;;
70052;SDS011;57398;52.032;4.376;2022-10-26T05:47:23;9.65;;;3.75;;
70052;SDS011;57398;52.032;4.376;2022-10-26T05:49:50;7.82;;;3.45;;
70052;SDS011;57398;52.032;4.376;2022-10-26T05:52:18;7.05;;;3.20;;
70052;SDS011;57398;52.032;4.376;2022-10-26T05:54:45;8.27;;;3.47;;
70052;SDS011;57398;52.032;4.376;2022-10-26T05:57:13;11.33;;;3.77;;
70052;SDS011;57398;52.032;4.376;2022-10-26T05:59:40;9.68;;;3.45;;
70052;SDS011;57398;52.032;4.376;2022-10-26T06:02:09;7.55;;;3.20;;
70052;SDS011;57398;52.032;4.376;2022-10-26T06:04:42;7.63;;;3.20;;
70052;SDS011;57398;52.032;4.376;2022-10-26T06:07:13;7.60;;;3.40;;
70052;SDS011;57398;52.032;4.376;2022-10-26T06:09:41;9.57;;;3.67;;
70052;SDS011;57398;52.032;4.376;2022-10-26T06:12:09;9.63;;;3.47;;
70052;SDS011;57398;52.032;4.376;2022-10-26T06:14:42;9.35;;;3.63;;
70052;SDS011;57398;52.032;4.376;2022-10-26T06:17:12;9.55;;;3.55;;
70052;SDS011;57398;52.032;4.376;2022-10-26T06:19:46;7.82;;;3.60;;
70052;SDS011;57398;52.032;4.376;2022-10-26T06:22:20;7.50;;;3.47;;
70052;SDS011;57398;52.032;4.376;2022-10-26T06:24:53;7.63;;;3.72;;
70052;SDS011;57398;52.032;4.376;2022-10-26T06:27:24;8.38;;;3.33;;
70052;SDS011;57398;52.032;4.376;2022-10-26T06:29:55;7.97;;;3.17;;
70052;SDS011;57398;52.032;4.376;2022-10-26T06:32:24;8.00;;;3.70;;
70052;SDS011;57398;52.032;4.376;2022-10-26T06:34:55;8.07;;;3.40;;
70052;SDS011;57398;52.032;4.376;2022-10-26T06:37:28;6.93;;;3.10;;
70052;SDS011;57398;52.032;4.376;2022-10-26T06:39:56;9.57;;;3.83;;
70052;SDS011;57398;52.032;4.376;2022-10-26T06:42:24;8.45;;;3.38;;
70052;SDS011;57398;52.032;4.376;2022-10-26T06:44:52;8.65;;;3.50;;
70052;SDS011;57398;52.032;4.376;2022-10-26T06:47:20;8.87;;;3.30;;
70052;SDS011;57398;52.032;4.376;2022-10-26T06:49:53;9.80;;;3.90;;
70052;SDS011;57398;52.032;4.376;2022-10-26T06:52:26;8.05;;;3.58;;
70052;SDS011;57398;52.032;4.376;2022-10-26T06:54:56;9.32;;;3.42;;
70052;SDS011;57398;52.032;4.376;2022-10-26T06:57:24;9.25;;;3.85;;
70052;SDS011;57398;52.032;4.376;2022-10-26T06:59:55;9.07;;;4.10;;
70052;SDS011;57398;52.032;4.376;2022-10-26T07:02:23;9.57;;;3.90;;
70052;SDS011;57398;52.032;4.376;2022-10-26T07:04:51;9.25;;;3.65;;
70052;SDS011;57398;52.032;4.376;2022-10-26T07:07:19;9.98;;;3.80;;
70052;SDS011;57398;52.032;4.376;2022-10-26T07:09:48;8.25;;;3.58;;
70052;SDS011;57398;52.032;4.376;2022-10-26T07:12:15;7.87;;;3.53;;
70052;SDS011;57398;52.032;4.376;2022-10-26T07:14:43;7.50;;;3.60;;
70052;SDS011;57398;52.032;4.376;2022-10-26T07:17:10;8.85;;;3.90;;
70052;SDS011;57398;52.032;4.376;2022-10-26T07:19:38;8.88;;;4.13;;
70052;SDS011;57398;52.032;4.376;2022-10-26T07:22:07;8.50;;;3.70;;
70052;SDS011;57398;52.032;4.376;2022-10-26T07:24:35;7.10;;;3.80;;
70052;SDS011;57398;52.032;4.376;2022-10-26T07:27:04;8.60;;;3.83;;
70052;SDS011;57398;52.032;4.376;2022-10-26T07:29:31;8.90;;;3.97;;
70052;SDS011;57398;52.032;4.376;2022-10-26T07:32:00;7.95;;;3.50;;
70052;SDS011;57398;52.032;4.376;2022-10-26T07:34:27;9.82;;;4.03;;
70052;SDS011;57398;52.032;4.376;2022-10-26T07:36:55;9.77;;;3.80;;
70052;SDS011;57398;52.032;4.376;2022-10-26T07:39:22;8.98;;;3.63;;
70052;SDS011;57398;52.032;4.376;2022-10-26T07:41:49;8.63;;;3.78;;
70052;SDS011;57398;52.032;4.376;2022-10-26T07:44:18;7.72;;;3.60;;
70052;SDS011;57398;52.032;4.376;2022-10-26T07:46:45;7.07;;;2.92;;
70052;SDS011;57398;52.032;4.376;2022-10-26T07:49:13;11.13;;;3.37;;
70052;SDS011;57398;52.032;4.376;2022-10-26T07:51:44;7.65;;;3.42;;
70052;SDS011;57398;52.032;4.376;2022-10-26T07:54:12;10.05;;;3.72;;
70052;SDS011;57398;52.032;4.376;2022-10-26T07:56:39;8.60;;;3.50;;
70052;SDS011;57398;52.032;4.376;2022-10-26T07:59:06;9.77;;;3.30;;
70052;SDS011;57398;52.032;4.376;2022-10-26T08:01:35;9.60;;;3.20;;
70052;SDS011;57398;52.032;4.376;2022-10-26T08:04:03;8.20;;;3.45;;
70052;SDS011;57398;52.032;4.376;2022-10-26T08:06:30;8.57;;;3.28;;
70052;SDS011;57398;52.032;4.376;2022-10-26T08:08:57;7.50;;;3.03;;
70052;SDS011;57398;52.032;4.376;2022-10-26T08:11:25;8.80;;;2.95;;
70052;SDS011;57398;52.032;4.376;2022-10-26T08:13:52;6.80;;;2.90;;
70052;SDS011;57398;52.032;4.376;2022-10-26T08:16:21;8.35;;;2.80;;
70052;SDS011;57398;52.032;4.376;2022-10-26T08:18:50;10.02;;;2.92;;
70052;SDS011;57398;52.032;4.376;2022-10-26T08:21:17;8.00;;;3.08;;
70052;SDS011;57398;52.032;4.376;2022-10-26T08:23:51;6.82;;;2.70;;
70052;SDS011;57398;52.032;4.376;2022-10-26T08:26:18;5.57;;;2.50;;
70052;SDS011;57398;52.032;4.376;2022-10-26T08:28:47;5.97;;;2.70;;
70052;SDS011;57398;52.032;4.376;2022-10-26T08:31:14;6.55;;;2.80;;
70052;SDS011;57398;52.032;4.376;2022-10-26T08:33:42;6.70;;;2.83;;
70052;SDS011;57398;52.032;4.376;2022-10-26T08:36:11;6.75;;;2.92;;
70052;SDS011;57398;52.032;4.376;2022-10-26T08:38:45;7.97;;;2.97;;
70052;SDS011;57398;52.032;4.376;2022-10-26T08:41:13;6.38;;;2.45;;
70052;SDS011;57398;52.032;4.376;2022-10-26T08:43:41;7.03;;;2.63;;
70052;SDS011;57398;52.032;4.376;2022-10-26T08:46:10;7.25;;;2.55;;
70052;SDS011;57398;52.032;4.376;2022-10-26T08:48:39;6.25;;;2.45;;
70052;SDS011;57398;52.032;4.376;2022-10-26T08:51:10;7.60;;;2.20;;
70052;SDS011;57398;52.032;4.376;2022-10-26T08:53:40;5.40;;;2.38;;
70052;SDS011;57398;52.032;4.376;2022-10-26T08:56:10;5.78;;;2.40;;
70052;SDS011;57398;52.032;4.376;2022-10-26T08:58:42;7.65;;;2.33;;
70052;SDS011;57398;52.032;4.376;2022-10-26T09:01:12;6.28;;;2.45;;
70052;SDS011;57398;52.032;4.376;2022-10-26T09:03:40;5.90;;;2.20;;
70052;SDS011;57398;52.032;4.376;2022-10-26T09:06:10;8.05;;;2.63;;
70052;SDS011;57398;52.032;4.376;2022-10-26T09:08:43;5.65;;;2.58;;
70052;SDS011;57398;52.032;4.376;2022-10-26T09:11:16;8.60;;;2.70;;
70052;SDS011;57398;52.032;4.376;2022-10-26T09:13:49;6.72;;;2.50;;
70052;SDS011;57398;52.032;4.376;2022-10-26T09:16:26;5.90;;;2.20;;
70052;SDS011;57398;52.032;4.376;2022-10-26T09:18:57;5.65;;;2.50;;
70052;SDS011;57398;52.032;4.376;2022-10-26T09:21:31;6.72;;;2.50;;
70052;SDS011;57398;52.032;4.376;2022-10-26T09:24:03;6.78;;;2.40;;
70052;SDS011;57398;52.032;4.376;2022-10-26T09:26:35;6.22;;;2.70;;
70052;SDS011;57398;52.032;4.376;2022-10-26T09:29:04;6.47;;;2.77;;
70052;SDS011;57398;52.032;4.376;2022-10-26T09:31:35;6.75;;;2.63;;
70052;SDS011;57398;52.032;4.376;2022-10-26T09:34:12;6.93;;;2.50;;
70052;SDS011;57398;52.032;4.376;2022-10-26T09:36:42;6.45;;;2.58;;
70052;SDS011;57398;52.032;4.376;2022-10-26T09:39:13;6.30;;;2.60;;
70052;SDS011;57398;52.032;4.376;2022-10-26T09:41:42;7.00;;;2.80;;
70052;SDS011;57398;52.032;4.376;2022-10-26T09:44:11;9.15;;;2.90;;
70052;SDS011;57398;52.032;4.376;2022-10-26T09:46:45;6.25;;;2.80;;
70052;SDS011;57398;52.032;4.376;2022-10-26T09:49:14;5.78;;;2.78;;
70052;SDS011;57398;52.032;4.376;2022-10-26T09:51:43;6.20;;;2.65;;
70052;SDS011;57398;52.032;4.376;2022-10-26T09:54:14;5.93;;;2.60;;
70052;SDS011;57398;52.032;4.376;2022-10-26T09:56:42;7.32;;;2.92;;
70052;SDS011;57398;52.032;4.376;2022-10-26T09:59:10;8.00;;;2.97;;
70052;SDS011;57398;52.032;4.376;2022-10-26T10:01:38;6.25;;;2.90;;
70052;SDS011;57398;52.032;4.376;2022-10-26T10:04:08;6.82;;;2.70;;
70052;SDS011;57398;52.032;4.376;2022-10-26T10:06:36;5.03;;;2.33;;
70052;SDS011;57398;52.032;4.376;2022-10-26T10:09:04;7.95;;;2.70;;
70052;SDS011;57398;52.032;4.376;2022-10-26T10:11:37;6.55;;;2.67;;
70052;SDS011;57398;52.032;4.376;2022-10-26T10:14:05;7.32;;;2.63;;
70052;SDS011;57398;52.032;4.376;2022-10-26T10:16:33;7.85;;;2.97;;
70052;SDS011;57398;52.032;4.376;2022-10-26T10:19:01;6.40;;;2.57;;
70052;SDS011;57398;52.032;4.376;2022-10-26T10:21:34;8.77;;;2.90;;
70052;SDS011;57398;52.032;4.376;2022-10-26T10:24:03;8.27;;;3.20;;
70052;SDS011;57398;52.032;4.376;2022-10-26T10:26:54;7.70;;;3.20;;
70052;SDS011;57398;52.032;4.376;2022-10-26T10:29:23;8.57;;;3.40;;
70052;SDS011;57398;52.032;4.376;2022-10-26T10:31:54;6.83;;;2.93;;
70052;SDS011;57398;52.032;4.376;2022-10-26T10:34:21;7.10;;;3.20;;
70052;SDS011;57398;52.032;4.376;2022-10-26T10:36:48;7.82;;;3.10;;
70052;SDS011;57398;52.032;4.376;2022-10-26T10:39:23;9.10;;;3.00;;
70052;SDS011;57398;52.032;4.376;2022-10-26T10:41:52;7.55;;;3.38;;
70052;SDS011;57398;52.032;4.376;2022-10-26T10:44:23;7.23;;;3.20;;
70052;SDS011;57398;52.032;4.376;2022-10-26T10:46:58;7.07;;;3.15;;
70052;SDS011;57398;52.032;4.376;2022-10-26T10:49:26;6.45;;;2.90;;
70052;SDS011;57398;52.032;4.376;2022-10-26T10:51:54;6.05;;;2.90;;
70052;SDS011;57398;52.032;4.376;2022-10-26T10:54:22;8.10;;;3.40;;
70052;SDS011;57398;52.032;4.376;2022-10-26T10:56:51;6.30;;;3.17;;
70052;SDS011;57398;52.032;4.376;2022-10-26T10:59:32;7.75;;;3.10;;
70052;SDS011;57398;52.032;4.376;2022-10-26T11:02:09;5.88;;;3.00;;
70052;SDS011;57398;52.032;4.376;2022-10-26T11:04:43;8.43;;;3.20;;
70052;SDS011;57398;52.032;4.376;2022-10-26T11:07:12;7.90;;;3.15;;
70052;SDS011;57398;52.032;4.376;2022-10-26T11:09:40;7.83;;;3.00;;
70052;SDS011;57398;52.032;4.376;2022-10-26T11:12:12;6.50;;;2.75;;
70052;SDS011;57398;52.032;4.376;2022-10-26T11:14:43;6.50;;;2.83;;
70052;SDS011;57398;52.032;4.376;2022-10-26T11:17:15;6.78;;;3.10;;
70052;SDS011;57398;52.032;4.376;2022-10-26T11:19:44;6.70;;;2.90;;
70052;SDS011;57398;52.032;4.376;2022-10-26T11:22:14;7.40;;;2.93;;
70052;SDS011;57398;52.032;4.376;2022-10-26T11:24:43;6.93;;;3.40;;
70052;SDS011;57398;52.032;4.376;2022-10-26T11:27:13;7.30;;;2.83;;
70052;SDS011;57398;52.032;4.376;2022-10-26T11:29:44;8.20;;;2.90;;
70052;SDS011;57398;52.032;4.376;2022-10-26T11:32:14;7.10;;;2.50;;
70052;SDS011;57398;52.032;4.376;2022-10-26T11:34:44;7.20;;;2.70;;
70052;SDS011;57398;52.032;4.376;2022-10-26T11:37:13;7.88;;;2.20;;
70052;SDS011;57398;52.032;4.376;2022-10-26T11:39:43;5.47;;;2.42;;
70052;SDS011;57398;52.032;4.376;2022-10-26T11:42:19;6.15;;;2.50;;
70052;SDS011;57398;52.032;4.376;2022-10-26T11:44:49;7.32;;;2.47;;
70052;SDS011;57398;52.032;4.376;2022-10-26T11:47:18;5.93;;;2.20;;
70052;SDS011;57398;52.032;4.376;2022-10-26T11:49:49;7.00;;;2.20;;
70052;SDS011;57398;52.032;4.376;2022-10-26T11:52:18;4.88;;;2.15;;
70052;SDS011;57398;52.032;4.376;2022-10-26T11:54:48;6.00;;;2.30;;
70052;SDS011;57398;52.032;4.376;2022-10-26T11:57:17;6.47;;;2.42;;
70052;SDS011;57398;52.032;4.376;2022-10-26T11:59:46;7.20;;;2.17;;
70052;SDS011;57398;52.032;4.376;2022-10-26T12:02:18;6.18;;;2.20;;
70052;SDS011;57398;52.032;4.376;2022-10-26T12:04:48;6.00;;;2.25;;
70052;SDS011;57398;52.032;4.376;2022-10-26T12:07:19;5.80;;;2.63;;
70052;SDS011;57398;52.032;4.376;2022-10-26T12:09:48;5.95;;;2.10;;
70052;SDS011;57398;52.032;4.376;2022-10-26T12:12:17;5.47;;;2.40;;
70052;SDS011;57398;52.032;4.376;2022-10-26T12:14:47;7.53;;;2.20;;
70052;SDS011;57398;52.032;4.376;2022-10-26T12:17:17;8.07;;;2.33;;
70052;SDS011;57398;52.032;4.376;2022-10-26T12:19:48;6.00;;;2.20;;
70052;SDS011;57398;52.032;4.376;2022-10-26T12:22:16;4.13;;;1.98;;
70052;SDS011;57398;52.032;4.376;2022-10-26T12:24:45;6.10;;;2.07;;
70052;SDS011;57398;52.032;4.376;2022-10-26T12:27:28;6.15;;;2.20;;
70052;SDS011;57398;52.032;4.376;2022-10-26T12:30:22;5.18;;;2.03;;
70052;SDS011;57398;52.032;4.376;2022-10-26T12:32:52;8.00;;;2.00;;
70052;SDS011;57398;52.032;4.376;2022-10-26T12:38:25;6.70;;;2.20;;
70052;SDS011;57398;52.032;4.376;2022-10-26T12:41:12;6.40;;;2.13;;
70052;SDS011;57398;52.032;4.376;2022-10-26T12:43:40;6.07;;;1.90;;
70052;SDS011;57398;52.032;4.376;2022-10-26T12:52:20;6.53;;;2.00;;
70052;SDS011;57398;52.032;4.376;2022-10-26T12:54:52;5.47;;;2.10;;
70052;SDS011;57398;52.032;4.376;2022-10-26T12:57:22;7.28;;;2.20;;
70052;SDS011;57398;52.032;4.376;2022-10-26T12:59:54;7.90;;;2.10;;
70052;SDS011;57398;52.032;4.376;2022-10-26T13:02:36;4.63;;;2.20;;
70052;SDS011;57398;52.032;4.376;2022-10-26T13:05:23;5.40;;;2.00;;
70052;SDS011;57398;52.032;4.376;2022-10-26T13:08:01;7.25;;;1.98;;
70052;SDS011;57398;52.032;4.376;2022-10-26T13:10:29;5.82;;;1.95;;
70052;SDS011;57398;52.032;4.376;2022-10-26T13:12:57;5.07;;;2.00;;
70052;SDS011;57398;52.032;4.376;2022-10-26T13:15:25;5.38;;;1.92;;
70052;SDS011;57398;52.032;4.376;2022-10-26T13:18:06;5.10;;;1.70;;
70052;SDS011;57398;52.032;4.376;2022-10-26T13:20:35;7.03;;;1.92;;
70052;SDS011;57398;52.032;4.376;2022-10-26T13:23:13;5.43;;;1.80;;
70052;SDS011;57398;52.032;4.376;2022-10-26T13:25:41;7.15;;;2.20;;
70052;SDS011;57398;52.032;4.376;2022-10-26T13:28:30;6.13;;;1.90;;
70052;SDS011;57398;52.032;4.376;2022-10-26T13:30:58;6.47;;;1.90;;
70052;SDS011;57398;52.032;4.376;2022-10-26T13:33:28;5.20;;;1.90;;
70052;SDS011;57398;52.032;4.376;2022-10-26T13:36:00;3.60;;;1.75;;
70052;SDS011;57398;52.032;4.376;2022-10-26T13:38:31;5.40;;;1.80;;
70052;SDS011;57398;52.032;4.376;2022-10-26T13:41:06;7.10;;;1.80;;
70052;SDS011;57398;52.032;4.376;2022-10-26T13:43:36;6.00;;;1.80;;
70052;SDS011;57398;52.032;4.376;2022-10-26T13:46:04;8.32;;;2.17;;
70052;SDS011;57398;52.032;4.376;2022-10-26T13:48:34;4.07;;;1.50;;
70052;SDS011;57398;52.032;4.376;2022-10-26T13:51:04;5.07;;;1.80;;
70052;SDS011;57398;52.032;4.376;2022-10-26T13:53:38;4.57;;;1.52;;
70052;SDS011;57398;52.032;4.376;2022-10-26T13:56:09;4.47;;;1.47;;
70052;SDS011;57398;52.032;4.376;2022-10-26T13:58:40;6.13;;;1.77;;
70052;SDS011;57398;52.032;4.376;2022-10-26T14:01:12;6.28;;;1.90;;
70052;SDS011;57398;52.032;4.376;2022-10-26T14:03:41;4.60;;;1.33;;
70052;SDS011;57398;52.032;4.376;2022-10-26T14:06:12;6.72;;;1.90;;
70052;SDS011;57398;52.032;4.376;2022-10-26T14:08:42;5.30;;;1.60;;
70052;SDS011;57398;52.032;4.376;2022-10-26T14:11:13;4.78;;;1.50;;
70052;SDS011;57398;52.032;4.376;2022-10-26T14:13:41;7.65;;;1.55;;
70052;SDS011;57398;52.032;4.376;2022-10-26T14:16:09;5.13;;;1.50;;
70052;SDS011;57398;52.032;4.376;2022-10-26T14:18:42;5.45;;;1.90;;
70052;SDS011;57398;52.032;4.376;2022-10-26T14:21:11;4.90;;;1.40;;
70052;SDS011;57398;52.032;4.376;2022-10-26T14:23:45;5.75;;;1.63;;
70052;SDS011;57398;52.032;4.376;2022-10-26T14:26:19;5.03;;;1.45;;
70052;SDS011;57398;52.032;4.376;2022-10-26T14:28:47;5.22;;;1.63;;
70052;SDS011;57398;52.032;4.376;2022-10-26T14:31:23;6.13;;;1.73;;
70052;SDS011;57398;52.032;4.376;2022-10-26T14:33:51;5.83;;;1.60;;
70052;SDS011;57398;52.032;4.376;2022-10-26T14:36:19;5.50;;;1.42;;
70052;SDS011;57398;52.032;4.376;2022-10-26T14:38:50;6.43;;;1.70;;
70052;SDS011;57398;52.032;4.376;2022-10-26T14:41:19;5.30;;;1.60;;
70052;SDS011;57398;52.032;4.376;2022-10-26T14:43:47;6.85;;;1.70;;
70052;SDS011;57398;52.032;4.376;2022-10-26T14:46:15;4.47;;;1.60;;
70052;SDS011;57398;52.032;4.376;2022-10-26T14:48:49;4.38;;;1.40;;
70052;SDS011;57398;52.032;4.376;2022-10-26T14:51:17;6.78;;;1.42;;
70052;SDS011;57398;52.032;4.376;2022-10-26T14:53:47;5.85;;;1.80;;
70052;SDS011;57398;52.032;4.376;2022-10-26T14:56:24;5.72;;;1.60;;
70052;SDS011;57398;52.032;4.376;2022-10-26T14:58:54;5.90;;;1.50;;
70052;SDS011;57398;52.032;4.376;2022-10-26T15:01:25;4.82;;;1.50;;
70052;SDS011;57398;52.032;4.376;2022-10-26T15:03:59;3.92;;;1.50;;
70052;SDS011;57398;52.032;4.376;2022-10-26T15:06:34;6.68;;;1.58;;
70052;SDS011;57398;52.032;4.376;2022-10-26T15:09:04;5.15;;;1.30;;
70052;SDS011;57398;52.032;4.376;2022-10-26T15:11:33;4.30;;;1.50;;
70052;SDS011;57398;52.032;4.376;2022-10-26T15:14:01;4.25;;;1.05;;
70052;SDS011;57398;52.032;4.376;2022-10-26T15:16:30;5.78;;;1.58;;